»·PEaware :: N1051M KEMT-KRNM

N1051M :: KEMT-KRNM

FLIGHT INFORMATION

Flight Status: Arrived
Operator: Privately registered:
United States
More flights under this callsign
Pilot: Shuai W. (12474)
Aircraft: CESSNA 172 SKYHAWK
(C172)
More flights by this aircraft type
Origin: KEMT El Monte
United States
Destination: KRNM Ramona
United States
More flights between these airports :: More routes between these airports
Route: +F70
File this flight plan on PilotEdge
Remarks:
Altitude:
(Current/Filed)
5,500ft
Speed:
(Current/Filed)
100kts
Departed: 02-Sep-19 02:09 PM
Arrived: 02-Sep-19 03:07 PM
Distance/Time
Traveled:
84nm/0:58
Distance/Time
To Go:
Arrived

Flight Plot

Page will automatically refresh every two minutes.

Flight plan parsing failed; only flown route is shown


Map Options




Map Legend


Flown Route
Filed Route
Departure Airport
Arrival Airport
Navaid (VOR, NDB)
Fix

Horizontal Profiles

Position Reports

Time Latitude Longitude Heading Altitude Ground
Speed
02-Sep-19 13:44 34.088635 -118.032303 293 297ft 0kts
02-Sep-19 13:45 34.088635 -118.032303 293 297ft 0kts
02-Sep-19 13:46 34.088635 -118.032303 293 297ft 0kts
02-Sep-19 13:47 34.088635 -118.032303 293 297ft 0kts
02-Sep-19 13:48 34.088635 -118.032303 293 297ft 0kts
02-Sep-19 13:49 34.088635 -118.032303 293 297ft 0kts
02-Sep-19 13:50 34.088635 -118.032303 293 297ft 0kts
02-Sep-19 13:51 34.088635 -118.032303 293 297ft 0kts
02-Sep-19 13:52 34.088635 -118.032303 293 297ft 0kts
02-Sep-19 13:53 34.088635 -118.032303 293 297ft 0kts
02-Sep-19 13:54 34.088635 -118.032303 293 297ft 0kts
02-Sep-19 13:55 34.088635 -118.032303 293 297ft 0kts
02-Sep-19 13:56 34.088635 -118.032303 293 297ft 0kts
02-Sep-19 13:57 34.088635 -118.032303 293 297ft 0kts
02-Sep-19 13:58 34.088635 -118.032303 293 297ft 0kts
02-Sep-19 13:59 34.088635 -118.032303 293 297ft 0kts
02-Sep-19 14:00 34.088635 -118.032303 293 297ft 0kts
02-Sep-19 14:01 34.088635 -118.032303 293 297ft 0kts
02-Sep-19 14:02 34.088827 -118.032536 354 297ft 2kts
02-Sep-19 14:03 34.090180 -118.031821 25 297ft 5kts
02-Sep-19 14:04 34.090723 -118.031604 301 297ft 0kts
02-Sep-19 14:05 34.090723 -118.031604 301 297ft 0kts
02-Sep-19 14:06 34.090858 -118.031992 267 297ft 2kts
02-Sep-19 14:07 34.089328 -118.032947 205 297ft 15kts
02-Sep-19 14:08 34.077417 -118.040105 205 698ft 71kts
02-Sep-19 14:09 34.083619 -118.025740 25 1534ft 96kts
02-Sep-19 14:11 34.085839 -118.002492 109 2373ft 79kts
02-Sep-19 14:12 34.075692 -117.978071 117 3142ft 80kts
02-Sep-19 14:13 34.067454 -117.952250 115 3831ft 85kts
02-Sep-19 14:14 34.057570 -117.926923 130 4541ft 80kts
02-Sep-19 14:15 34.049473 -117.901262 111 5163ft 84kts
02-Sep-19 14:16 34.041369 -117.874570 111 5457ft 89kts
02-Sep-19 14:17 34.030221 -117.846116 147 5594ft 97kts
02-Sep-19 14:18 34.008328 -117.825314 142 5685ft 103kts
02-Sep-19 14:19 33.983015 -117.806642 149 5440ft 107kts
02-Sep-19 14:20 33.957596 -117.789810 159 5298ft 103kts
02-Sep-19 14:21 33.933008 -117.775913 155 5293ft 97kts
02-Sep-19 14:22 33.910310 -117.758752 148 5312ft 96kts
02-Sep-19 14:23 33.888767 -117.740022 140 5362ft 98kts
02-Sep-19 14:24 33.876394 -117.711305 116 5445ft 99kts
02-Sep-19 14:25 33.865575 -117.681955 115 5588ft 96kts
02-Sep-19 14:26 33.854296 -117.652022 123 5684ft 97kts
02-Sep-19 14:27 33.840793 -117.621123 122 5604ft 107kts
02-Sep-19 14:28 33.824981 -117.588962 124 5367ft 112kts
02-Sep-19 14:28 33.813135 -117.561618 123 5202ft 108kts
02-Sep-19 14:30 33.794223 -117.528344 123 5127ft 103kts
02-Sep-19 14:31 33.778873 -117.501322 134 5188ft 94kts
02-Sep-19 14:31 33.767022 -117.478096 130 5213ft 92kts
02-Sep-19 14:32 33.753907 -117.451394 119 5365ft 95kts
02-Sep-19 14:34 33.739403 -117.419526 122 5594ft 94kts
02-Sep-19 14:35 33.728066 -117.390801 129 5724ft 97kts
02-Sep-19 14:35 33.713645 -117.368759 129 5744ft 97kts
02-Sep-19 14:36 33.694517 -117.345022 129 5716ft 105kts
02-Sep-19 14:38 33.673546 -117.311721 125 5563ft 107kts
02-Sep-19 14:38 33.660303 -117.286136 123 5467ft 108kts
02-Sep-19 14:39 33.644450 -117.255529 123 5390ft 107kts
02-Sep-19 14:40 33.631233 -117.223330 121 5334ft 104kts
02-Sep-19 14:41 33.616313 -117.192808 123 5261ft 102kts
02-Sep-19 14:42 33.600156 -117.164934 123 5229ft 98kts
02-Sep-19 14:43 33.581852 -117.142181 168 5270ft 96kts
02-Sep-19 14:44 33.557412 -117.132230 168 5438ft 93kts
02-Sep-19 14:45 33.532945 -117.122971 165 5566ft 94kts
02-Sep-19 14:46 33.507218 -117.115379 172 5630ft 100kts
02-Sep-19 14:47 33.482570 -117.101288 162 5661ft 101kts
02-Sep-19 14:48 33.454275 -117.091844 164 5542ft 103kts
02-Sep-19 14:49 33.425639 -117.082857 169 5347ft 105kts
02-Sep-19 14:50 33.397897 -117.073000 166 5243ft 103kts
02-Sep-19 14:51 33.371559 -117.064018 160 5306ft 96kts
02-Sep-19 14:52 33.346145 -117.052489 165 5308ft 97kts
02-Sep-19 14:53 33.321441 -117.039733 165 5324ft 97kts
02-Sep-19 14:54 33.295570 -117.039682 186 5459ft 97kts
02-Sep-19 14:55 33.271251 -117.028409 152 5553ft 96kts
02-Sep-19 14:56 33.246700 -117.016448 163 5603ft 97kts
02-Sep-19 14:57 33.220256 -117.007947 159 5576ft 101kts
02-Sep-19 14:58 33.193940 -116.991354 146 5318ft 108kts
02-Sep-19 14:59 33.167789 -116.975583 172 5184ft 108kts
02-Sep-19 15:00 33.143716 -116.959843 140 5194ft 106kts
02-Sep-19 15:01 33.117720 -116.947073 158 4569ft 104kts
02-Sep-19 15:02 33.091995 -116.935515 166 3515ft 98kts
02-Sep-19 15:03 33.069747 -116.925332 164 2610ft 78kts
02-Sep-19 15:04 33.050387 -116.915033 100 2042ft 79kts
02-Sep-19 15:05 33.042265 -116.896185 202 1841ft 72kts
02-Sep-19 15:06 33.038861 -116.913187 280 1395ft 31kts
02-Sep-19 15:07 33.039612 -116.915025 6 1395ft 0kts
02-Sep-19 15:08 33.039455 -116.912529 97 1395ft 12kts
02-Sep-19 15:09 33.039846 -116.911323 125 1395ft 0kts

Navigation Log

Ident Type
Flight plan parsing failed, navigation log unavailable